Embudo, NM (87531)

3:41 PM MDT on October 23, 2014 (GMT -0600)
Velarde | Change Station
CLOSE
Current Station
Personal Weather Station
Location: Velarde, NM
Elevation: 5781 ft
Nearby Weather Stations

Elev 5781 ft 36.16 °N, 105.97 °W | Updated 4 minutes ago

Clear
Clear
75.9 °F
Feels Like 77 °F
N
3.0
Wind Variable Wind from SE
Gusts 4.0 mph

Today
High -- | Low -- °F
--% Chance of Precip.
Yesterday
High -- | Low -- °F
Precip. -- in
7:18 AM 6:17 PM
Waning Crescent, 0% visible
Pressure 30.29 in
Visibility 10.0 miles
Clouds Clear
Heat Index 77 °F
Dew Point 34 °F
Humidity 22%
Rainfall 0.00 in
Snow Depth Not available.
UV 3 out of 12
Pollen 3.50 out of 12
Air Quality Not available.
Flu Activity Sporadic
METAR KLAM 232135Z AUTO 00000KT 10SM CLR 19/00 A3029 RMK AO2 T01860001

More Conditions Fewer Conditions

Pressure 30.29 in
Visibility 10.0 miles
Clouds Clear
Heat Index 77 °F
Dew Point 34 °F
Humidity 22%
Rainfall 0.00 in
Snow Depth Not available.
UV 3 out of 12
Pollen 3.50 out of 12
Air Quality Not available.
Flu Activity Sporadic
METAR KLAM 232135Z AUTO 00000KT 10SM CLR 19/00 A3029 RMK AO2 T01860001

More Conditions Fewer Conditions

10-Day Weather Forecast

Almanac

Astronomy

Oct. 23, 2014 Rise Set
Actual Time 7:18 AM MDT 6:17 PM MDT
Civil Twilight 6:52 AM MDT 6:43 PM MDT
Nautical Twilight 6:22 AM MDT 7:13 PM MDT
Astronomical Twilight 5:52 AM MDT 7:43 PM MDT
Moon 7:01 AM MDT 6:21 PM MDT
Length of Visible Light 11h 51m
Length of Day
10h 59m
Tomorrow will be 2m 7s shorter.
Waning Crescent, 0% of the Moon is Illuminated
Today
Waning Crescent
Oct 23
New
Oct 30
First Quarter
Nov 6
Full
Nov 14
Last Quarter

Today's Extremes

State Highs State Lows

Community

WunderPhotos

Upload Photos

1,764,381 photos uploaded!

WunderBlogs® & News

Nearby

Snow Depth

Station Depth Elevation
Santa Fe 0 in 11445 ft
Wesner Springs 1 in 11120 ft
Senorita Divide #2 0 in 8600 ft
Silver Creek Divide 0 in 9000 ft

Earthquake Activity

City Distance Mag. Time & Date
Trinidad, Colorado 87 miles 2.7 10:33 PM MDT
2014-10-20
Minimum magnitude displayed is 2.5.

Coastal Water Temperatures

Place Temperature
No Stations Reporting

Nearby Weather Stations